Time;durP1;ratioP1;P1;durP2;ratioP2;P2;SDS_P1;SDS_P2;PMS_P1;PMS_P2;Temp;Humidity;BMP_temperature;BMP_pressure;BME280_temperature;BME280_humidity;BME280_pressure;Samples;Min_cycle;Max_cycle;Signal;HPM_P1;HPM_P2
2022/07/24 00:01:33;;;;;;;;;;;;;;;17.53;72.75;98919.72;4715719;30;20441;-82
2022/07/24 00:04:00;;;;;;;;;;;;;;;17.56;72.39;98924.59;4714831;30;19930;-82
2022/07/24 00:06:27;;;;;;;;;;;;;;;17.56;72.35;98916.41;4714778;30;19984;-82
2022/07/24 00:08:54;;;;;;;;;;;;;;;17.55;72.41;98912.88;4716268;30;19931;-83
2022/07/24 00:11:21;;;;;;;;;;;;;;;17.51;72.44;98913.72;4715642;30;19930;-82
2022/07/24 00:13:48;;;;;;;;;;;;;;;17.47;72.97;98913.53;4715594;30;19931;-82
2022/07/24 00:16:17;;;;;;;;;;;;;;;17.41;73.08;98913.88;4743252;30;19946;-83
2022/07/24 00:18:43;;;;;;;;;;;;;;;17.38;73.49;98911.72;4715352;30;19980;-83
2022/07/24 00:21:11;;;;;;;;;;;;;;;17.38;73.87;98917.19;4715716;30;20029;-83
2022/07/24 00:23:37;;;;;;;;;;;;;;;17.38;74.03;98912.53;4715396;30;19994;-81
2022/07/24 00:26:14;;;;;;;;;;;;;;;17.32;74.36;98913.72;4715139;30;20025;-82
2022/07/24 00:28:41;;;;;;;;;;;;;;;17.31;74.38;98923.78;4715351;30;20021;-82
2022/07/24 00:31:10;;;;;;;;;;;;;;;17.32;74.26;98928.16;4714915;30;20318;-82
2022/07/24 00:33:37;;;;;;;;;;;;;;;17.32;74.34;98925.44;4715283;30;19937;-82
2022/07/24 00:36:05;;;;;;;;;;;;;;;17.30;74.36;98930.34;4714981;30;20323;-81
2022/07/24 00:38:32;;;;;;;;;;;;;;;17.32;74.42;98925.44;4715030;30;20306;-83
2022/07/24 00:41:08;;;;;;;;;;;;;;;17.36;74.05;98924.84;4698146;30;20366;-83
2022/07/24 00:43:35;;;;;;;;;;;;;;;17.32;74.09;98930.06;4715263;30;19937;-82
2022/07/24 00:46:02;;;;;;;;;;;;;;;17.31;74.27;98925.69;4713780;30;20376;-83
2022/07/24 00:48:30;;;;;;;;;;;;;;;17.31;74.68;98929.22;4714973;30;19982;-82
2022/07/24 00:50:58;;;;;;;;;;;;;;;17.35;74.46;98920.50;4715156;30;20365;-83
2022/07/24 00:53:27;;;;;;;;;;;;;;;17.37;74.31;98919.09;4714641;30;20344;-83
2022/07/24 00:55:53;;;;;;;;;;;;;;;17.37;74.44;98923.72;4715004;30;19931;-83
2022/07/24 00:58:21;;;;;;;;;;;;;;;17.33;74.71;98918.03;4714811;30;20307;-83
2022/07/24 01:00:48;;;;;;;;;;;;;;;17.27;74.46;98921.94;4714066;30;20029;-83
2022/07/24 01:03:15;;;;;;;;;;;;;;;17.28;74.66;98923.56;4714699;30;19930;-83
2022/07/24 01:05:42;;;;;;;;;;;;;;;17.28;74.81;98916.19;4713658;30;19988;-83
2022/07/24 01:08:09;;;;;;;;;;;;;;;17.30;74.94;98927.63;4713381;30;19991;-82
2022/07/24 01:10:40;;;;;;;;;;;;;;;17.35;74.58;98917.78;4699785;30;20029;-83
2022/07/24 01:13:07;;;;;;;;;;;;;;;17.38;74.41;98915.25;4699227;30;19990;-82
2022/07/24 01:15:33;;;;;;;;;;;;;;;17.40;74.33;98925.88;4713893;30;19971;-83
2022/07/24 01:18:01;;;;;;;;;;;;;;;17.38;74.39;98919.91;4714920;30;20041;-82
2022/07/24 01:20:28;;;;;;;;;;;;;;;17.37;74.46;98915.53;4713879;30;19988;-83
2022/07/24 01:22:55;;;;;;;;;;;;;;;17.33;74.67;98920.78;4699404;30;20025;-82
2022/07/24 01:25:22;;;;;;;;;;;;;;;17.30;75.17;98913.19;4713600;30;19934;-84
2022/07/24 01:27:49;;;;;;;;;;;;;;;17.21;75.34;98921.16;4715190;30;19930;-83
2022/07/24 01:30:15;;;;;;;;;;;;;;;17.11;75.58;98921.28;4714608;30;19969;-83
2022/07/24 01:32:42;;;;;;;;;;;;;;;17.01;75.72;98918.66;4714771;30;19930;-82
2022/07/24 01:35:09;;;;;;;;;;;;;;;16.95;75.88;98917.13;4714527;30;19930;-83
2022/07/24 01:37:49;;;;;;;;;;;;;;;16.93;75.88;98917.38;4701171;30;19931;-83
2022/07/24 01:40:16;;;;;;;;;;;;;;;16.98;75.93;98928.25;4714550;30;19974;-82
2022/07/24 01:42:43;;;;;;;;;;;;;;;17.01;75.72;98926.84;4713726;30;20414;-82
2022/07/24 01:45:10;;;;;;;;;;;;;;;17.01;75.80;98930.38;4713424;30;19966;-83
2022/07/24 01:47:37;;;;;;;;;;;;;;;17.07;75.53;98931.16;4713615;30;19931;-83
2022/07/24 01:50:04;;;;;;;;;;;;;;;17.09;75.42;98932.50;4714503;30;20423;-82
2022/07/24 01:52:31;;;;;;;;;;;;;;;17.13;75.32;98935.44;4713513;30;20358;-83
2022/07/24 01:54:57;;;;;;;;;;;;;;;17.16;75.34;98937.59;4714599;30;19984;-83
2022/07/24 01:57:24;;;;;;;;;;;;;;;17.27;74.96;98930.94;4714567;30;20002;-84
2022/07/24 01:59:56;;;;;;;;;;;;;;;17.30;74.89;98938.53;4714863;30;19970;-81
2022/07/24 02:02:25;;;;;;;;;;;;;;;17.42;74.64;98927.22;4715191;30;19969;-81
2022/07/24 02:04:51;;;;;;;;;;;;;;;17.48;74.42;98931.50;4714880;30;20318;-81
2022/07/24 02:07:19;;;;;;;;;;;;;;;17.47;74.84;98931.78;4717336;30;20388;-81
2022/07/24 02:09:48;;;;;;;;;;;;;;;17.60;74.25;98935.72;4717528;30;19977;-82
2022/07/24 02:12:14;;;;;;;;;;;;;;;17.63;74.01;98940.59;4715186;30;19990;-82
2022/07/24 02:14:41;;;;;;;;;;;;;;;17.68;73.92;98929.63;4717723;30;20375;-82
2022/07/24 02:17:08;;;;;;;;;;;;;;;17.73;73.92;98937.75;4717204;30;20450;-82
2022/07/24 02:19:35;;;;;;;;;;;;;;;17.75;74.15;98941.81;4717965;30;19937;-82
2022/07/24 02:22:02;;;;;;;;;;;;;;;17.80;74.20;98940.13;4716182;30;20001;-82
2022/07/24 02:24:36;;;;;;;;;;;;;;;17.88;74.04;98936.75;4717564;30;19931;-82
2022/07/24 02:27:03;;;;;;;;;;;;;;;17.95;73.83;98935.28;4717277;30;19931;-82
2022/07/24 02:29:30;;;;;;;;;;;;;;;18.05;73.74;98945.22;4717305;30;19952;-83
2022/07/24 02:31:57;;;;;;;;;;;;;;;18.09;73.51;98940.81;4717309;30;20403;-83
2022/07/24 02:34:24;;;;;;;;;;;;;;;18.07;73.46;98936.75;4716134;30;20306;-83
2022/07/24 02:36:51;;;;;;;;;;;;;;;17.97;73.84;98937.72;4717158;30;19931;-83
2022/07/24 02:39:18;;;;;;;;;;;;;;;17.85;74.25;98940.06;4716965;30;19958;-82
2022/07/24 02:41:45;;;;;;;;;;;;;;;17.77;74.60;98933.31;4717292;30;19977;-82
2022/07/24 02:44:12;;;;;;;;;;;;;;;17.73;74.79;98944.00;4717115;30;19988;-83
2022/07/24 02:46:38;;;;;;;;;;;;;;;17.70;74.93;98939.16;4716941;30;20021;-82
2022/07/24 02:49:05;;;;;;;;;;;;;;;17.73;74.92;98935.00;4715450;30;19970;-81
2022/07/24 02:51:35;;;;;;;;;;;;;;;17.73;74.92;98935.81;4716790;30;19935;-83
2022/07/24 02:54:02;;;;;;;;;;;;;;;17.80;75.00;98931.94;4716370;30;19934;-82
2022/07/24 02:56:31;;;;;;;;;;;;;;;17.85;74.92;98934.59;4716835;30;19930;-82
2022/07/24 02:58:58;;;;;;;;;;;;;;;17.90;75.01;98929.91;4716817;30;19942;-83
2022/07/24 03:01:26;;;;;;;;;;;;;;;17.92;74.74;98933.13;4716523;30;19977;-82
2022/07/24 03:04:09;;;;;;;;;;;;;;;17.95;75.01;98931.72;4685352;30;19938;-82
2022/07/24 03:06:36;;;;;;;;;;;;;;;17.98;75.06;98921.03;4716737;30;19937;-82
2022/07/24 03:09:03;;;;;;;;;;;;;;;18.05;74.84;98930.78;4716544;30;19966;-83
2022/07/24 03:11:30;;;;;;;;;;;;;;;18.16;74.40;98919.41;4716347;30;19970;-83
2022/07/24 03:13:57;;;;;;;;;;;;;;;18.29;74.07;98919.78;4716600;30;19935;-82
2022/07/24 03:16:24;;;;;;;;;;;;;;;18.38;73.83;98924.25;4700311;30;20119;-84
2022/07/24 03:18:51;;;;;;;;;;;;;;;18.48;73.39;98919.72;4715415;30;20303;-82
2022/07/24 03:21:20;;;;;;;;;;;;;;;18.60;73.26;98915.41;4716005;30;19930;-82
2022/07/24 03:24:07;;;;;;;;;;;;;;;18.71;72.72;98917.97;4716071;30;20029;-83
2022/07/24 03:26:34;;;;;;;;;;;;;;;18.78;72.62;98913.75;4716131;30;20021;-83
2022/07/24 03:29:01;;;;;;;;;;;;;;;18.87;72.41;98918.56;4716361;30;19937;-83
2022/07/24 03:31:29;;;;;;;;;;;;;;;19.01;71.96;98911.16;4716286;30;19964;-82
2022/07/24 03:33:56;;;;;;;;;;;;;;;19.17;71.28;98912.50;4716016;30;19937;-83
2022/07/24 03:36:23;;;;;;;;;;;;;;;19.31;71.06;98908.97;4716068;30;20013;-83
2022/07/24 03:38:52;;;;;;;;;;;;;;;19.42;70.47;98913.94;4716140;30;20037;-83
2022/07/24 03:41:19;;;;;;;;;;;;;;;19.52;69.91;98909.34;4715809;30;20475;-83
2022/07/24 03:43:45;;;;;;;;;;;;;;;19.50;69.83;98904.19;4714948;30;20000;-82
2022/07/24 03:46:12;;;;;;;;;;;;;;;19.52;69.95;98907.41;4715755;30;19937;-82
2022/07/24 03:48:43;;;;;;;;;;;;;;;19.55;70.19;98915.03;4716079;30;19938;-83
2022/07/24 03:51:10;;;;;;;;;;;;;;;19.67;69.72;98904.41;4715548;30;19966;-83
2022/07/24 03:53:37;;;;;;;;;;;;;;;19.77;69.66;98906.09;4715683;30;20427;-81
2022/07/24 03:56:08;;;;;;;;;;;;;;;19.85;69.48;98910.03;4714624;30;20387;-82
2022/07/24 03:58:35;;;;;;;;;;;;;;;19.92;69.54;98908.47;4714637;30;19969;-82
2022/07/24 04:01:12;;;;;;;;;;;;;;;20.04;69.43;98901.66;4714050;30;20403;-81
2022/07/24 04:03:39;;;;;;;;;;;;;;;20.12;69.10;98904.47;4714303;30;20430;-82
2022/07/24 04:06:06;;;;;;;;;;;;;;;20.16;69.12;98901.13;4715463;30;19935;-82
2022/07/24 04:08:33;;;;;;;;;;;;;;;20.22;69.02;98897.94;4715669;30;20021;-82
2022/07/24 04:11:01;;;;;;;;;;;;;;;20.35;69.46;98905.28;4714344;30;20306;-81
2022/07/24 04:13:29;;;;;;;;;;;;;;;20.46;69.63;98907.75;4714367;30;19934;-82
2022/07/24 04:15:58;;;;;;;;;;;;;;;20.54;69.42;98912.53;4715753;30;19935;-83
2022/07/24 04:18:25;;;;;;;;;;;;;;;20.61;68.73;98912.09;4715223;30;19965;-81
2022/07/24 04:20:53;;;;;;;;;;;;;;;20.72;68.08;98913.47;4715606;30;20438;-83
2022/07/24 04:23:20;;;;;;;;;;;;;;;20.83;68.10;98914.00;4715091;30;20441;-81
2022/07/24 04:25:47;;;;;;;;;;;;;;;20.91;68.26;98918.72;4714290;30;19977;-82
2022/07/24 04:28:14;;;;;;;;;;;;;;;21.08;67.72;98916.06;4714844;30;19930;-82
2022/07/24 04:30:41;;;;;;;;;;;;;;;21.24;66.98;98915.63;4715194;30;19960;-83
2022/07/24 04:33:08;;;;;;;;;;;;;;;21.33;66.10;98913.75;4714908;30;19961;-82
2022/07/24 04:35:35;;;;;;;;;;;;;;;21.41;65.69;98915.72;4715631;30;19958;-82
2022/07/24 04:38:02;;;;;;;;;;;;;;;21.51;65.29;98909.94;4715747;30;19931;-82
2022/07/24 04:40:29;;;;;;;;;;;;;;;21.54;63.60;98917.53;4715538;30;19930;-83
2022/07/24 04:42:55;;;;;;;;;;;;;;;21.59;63.05;98914.63;4715377;30;19931;-84
2022/07/24 04:45:22;;;;;;;;;;;;;;;21.63;62.81;98910.13;4714902;30;20133;-84
2022/07/24 04:47:51;;;;;;;;;;;;;;;21.69;62.13;98908.03;4715105;30;19930;-82
2022/07/24 04:50:21;;;;;;;;;;;;;;;21.75;61.91;98908.69;4715018;30;20378;-84
2022/07/24 04:52:53;;;;;;;;;;;;;;;21.72;61.75;98909.34;4715071;30;19930;-81
2022/07/24 04:55:23;;;;;;;;;;;;;;;21.84;60.86;98912.28;4714680;30;19934;-82
2022/07/24 04:57:50;;;;;;;;;;;;;;;21.98;60.18;98917.63;4715220;30;19937;-84
2022/07/24 05:00:17;;;;;;;;;;;;;;;22.12;59.79;98920.22;4715019;30;19960;-83
2022/07/24 05:02:45;;;;;;;;;;;;;;;22.23;60.78;98918.78;4714247;30;20417;-83
2022/07/24 05:05:11;;;;;;;;;;;;;;;22.33;60.97;98918.44;4714615;30;19930;-83
2022/07/24 05:07:38;;;;;;;;;;;;;;;22.43;60.88;98917.31;4715210;30;19966;-83
2022/07/24 05:10:05;;;;;;;;;;;;;;;22.57;60.61;98908.91;4715021;30;19931;-82
2022/07/24 05:12:32;;;;;;;;;;;;;;;22.65;60.41;98913.56;4715470;30;19970;-83
2022/07/24 05:14:59;;;;;;;;;;;;;;;22.73;59.95;98918.22;4715355;30;19931;-83
2022/07/24 05:17:29;;;;;;;;;;;;;;;22.82;59.71;98907.22;4715183;30;19930;-83
2022/07/24 05:19:56;;;;;;;;;;;;;;;22.92;59.64;98904.13;4715238;30;19998;-83
2022/07/24 05:22:23;;;;;;;;;;;;;;;23.04;58.88;98903.44;4713291;30;19931;-84
2022/07/24 05:24:50;;;;;;;;;;;;;;;23.14;58.55;98898.41;4714739;30;19930;-82
2022/07/24 05:27:17;;;;;;;;;;;;;;;23.23;58.36;98901.09;4714699;30;19930;-83
2022/07/24 05:29:46;;;;;;;;;;;;;;;23.24;58.14;98899.94;4700259;30;19930;-82
2022/07/24 05:32:13;;;;;;;;;;;;;;;23.30;57.81;98884.88;4715186;30;19931;-83
2022/07/24 05:34:54;;;;;;;;;;;;;;;23.45;57.18;98899.22;4715683;30;20444;-84
2022/07/24 05:37:21;;;;;;;;;;;;;;;23.55;56.39;98896.09;4715253;30;19930;-83
2022/07/24 05:39:48;;;;;;;;;;;;;;;23.59;56.08;98891.50;4717289;30;20367;-84
2022/07/24 05:42:17;;;;;;;;;;;;;;;23.71;55.83;98891.59;4718843;30;20122;-83
2022/07/24 05:44:44;;;;;;;;;;;;;;;23.81;55.72;98897.91;4719154;30;19965;-82
2022/07/24 05:47:11;;;;;;;;;;;;;;;23.76;53.92;98888.66;4718190;30;19973;-83
2022/07/24 05:49:39;;;;;;;;;;;;;;;23.77;53.57;98882.00;4717830;30;20194;-84
2022/07/24 05:52:05;;;;;;;;;;;;;;;23.87;54.89;98889.06;4716299;30;19942;-82
2022/07/24 05:54:35;;;;;;;;;;;;;;;23.98;55.10;98881.22;4717398;30;20311;-83
2022/07/24 05:57:02;;;;;;;;;;;;;;;24.11;54.52;98877.38;4717453;30;19930;-82
2022/07/24 05:59:29;;;;;;;;;;;;;;;24.23;54.05;98877.44;4717086;30;19930;-83
2022/07/24 06:01:56;;;;;;;;;;;;;;;24.34;52.52;98879.78;4717305;30;20046;-83
2022/07/24 06:04:23;;;;;;;;;;;;;;;24.35;50.89;98881.38;4716554;30;19931;-83
2022/07/24 06:06:50;;;;;;;;;;;;;;;24.41;51.74;98886.34;4736239;30;19969;-85
2022/07/24 06:09:17;;;;;;;;;;;;;;;24.52;51.78;98875.72;4716984;30;19934;-83
2022/07/24 06:11:44;;;;;;;;;;;;;;;24.67;51.41;98881.75;4717632;30;19935;-85
2022/07/24 06:14:13;;;;;;;;;;;;;;;24.70;50.47;98875.56;4716956;30;19989;-83
2022/07/24 06:16:40;;;;;;;;;;;;;;;24.73;49.83;98885.91;4717323;30;20314;-84
2022/07/24 06:19:07;;;;;;;;;;;;;;;24.71;49.81;98882.66;4716444;30;19965;-83
2022/07/24 06:21:34;;;;;;;;;;;;;;;24.84;49.38;98882.38;4717378;30;19981;-84
2022/07/24 06:24:01;;;;;;;;;;;;;;;24.97;49.49;98885.16;4716887;30;19937;-83
2022/07/24 06:26:28;;;;;;;;;;;;;;;25.00;47.95;98879.72;4713893;30;20485;-83
2022/07/24 06:29:26;;;;;;;;;;;;;;;25.03;47.77;98876.28;4718258;30;20375;-84
2022/07/24 06:31:53;;;;;;;;;;;;;;;25.06;47.69;98875.59;4718318;30;19978;-87
2022/07/24 06:34:23;;;;;;;;;;;;;;;25.16;47.01;98876.28;4717770;30;19930;-84
2022/07/24 06:36:51;;;;;;;;;;;;;;;25.20;46.50;98871.72;4738400;30;20315;-83
2022/07/24 06:39:17;;;;;;;;;;;;;;;25.24;46.57;98867.91;4717389;30;20037;-83
2022/07/24 06:41:44;;;;;;;;;;;;;;;25.39;46.12;98868.38;4716284;30;20426;-83
2022/07/24 06:44:23;;;;;;;;;;;;;;;25.40;45.42;98862.53;4714926;30;20598;-82
2022/07/24 06:46:50;;;;;;;;;;;;;;;25.47;45.00;98865.50;4716197;30;19985;-84
2022/07/24 06:49:17;;;;;;;;;;;;;;;25.52;43.57;98861.69;4717475;30;20401;-83
2022/07/24 06:51:44;;;;;;;;;;;;;;;25.62;43.92;98861.19;4738392;30;19947;-84
2022/07/24 06:54:11;;;;;;;;;;;;;;;25.49;43.55;98871.47;4717835;30;19934;-83
2022/07/24 06:56:38;;;;;;;;;;;;;;;25.60;43.37;98858.00;4717448;30;20441;-83
2022/07/24 06:59:05;;;;;;;;;;;;;;;25.77;43.86;98859.69;4717290;30;19941;-82
2022/07/24 07:01:36;;;;;;;;;;;;;;;26.05;43.50;98856.19;4733955;30;19931;-83
2022/07/24 07:04:03;;;;;;;;;;;;;;;25.95;42.67;98851.94;4700002;30;20017;-82
2022/07/24 07:06:30;;;;;;;;;;;;;;;25.84;42.35;98857.13;4703383;30;19941;-84
2022/07/24 07:08:59;;;;;;;;;;;;;;;25.87;42.86;98842.63;4717499;30;19931;-83
2022/07/24 07:11:27;;;;;;;;;;;;;;;26.20;42.36;98847.13;4716889;30;20017;-83
2022/07/24 07:13:53;;;;;;;;;;;;;;;26.07;42.15;98845.56;4716238;30;20021;-83
2022/07/24 07:16:23;;;;;;;;;;;;;;;26.15;42.27;98839.88;4715777;30;20324;-84
2022/07/24 07:18:50;;;;;;;;;;;;;;;26.53;42.57;98848.84;4716409;30;20025;-83
2022/07/24 07:21:17;;;;;;;;;;;;;;;26.69;42.69;98852.44;4715533;30;19976;-83
2022/07/24 07:23:44;;;;;;;;;;;;;;;26.11;43.11;98843.72;4736169;30;20410;-83
2022/07/24 07:26:15;;;;;;;;;;;;;;;25.89;42.83;98840.31;4716061;30;20322;-84
2022/07/24 07:28:42;;;;;;;;;;;;;;;25.93;42.41;98834.91;4715881;30;19980;-84
2022/07/24 07:31:09;;;;;;;;;;;;;;;25.96;42.29;98838.94;4715787;30;19937;-82
2022/07/24 07:33:36;;;;;;;;;;;;;;;25.99;41.36;98832.72;4714439;30;20817;-82
2022/07/24 07:36:03;;;;;;;;;;;;;;;25.91;41.80;98826.16;4717075;30;19931;-82
2022/07/24 07:38:30;;;;;;;;;;;;;;;26.01;41.55;98827.63;4716611;30;20399;-83
2022/07/24 07:40:57;;;;;;;;;;;;;;;26.19;41.43;98828.13;4716832;30;20025;-81
2022/07/24 07:43:24;;;;;;;;;;;;;;;26.33;41.76;98826.56;4718192;30;19952;-82
2022/07/24 07:45:51;;;;;;;;;;;;;;;26.38;41.12;98834.59;4716640;30;20390;-83
2022/07/24 07:48:18;;;;;;;;;;;;;;;26.23;41.17;98818.78;4715118;30;20199;-79
2022/07/24 07:50:45;;;;;;;;;;;;;;;26.32;41.39;98819.41;4715100;30;20320;-81
2022/07/24 07:53:12;;;;;;;;;;;;;;;26.46;40.46;98815.41;4716517;30;19942;-81
2022/07/24 07:55:39;;;;;;;;;;;;;;;26.62;40.36;98818.25;4716782;30;19931;-82
2022/07/24 07:58:06;;;;;;;;;;;;;;;26.75;40.73;98817.78;4716662;30;19931;-83
2022/07/24 08:00:33;;;;;;;;;;;;;;;26.80;39.96;98822.25;4715363;30;19958;-82
2022/07/24 08:03:04;;;;;;;;;;;;;;;26.80;40.52;98820.28;4716451;30;20017;-81
2022/07/24 08:05:31;;;;;;;;;;;;;;;26.77;39.81;98812.72;4716168;30;19936;-83
2022/07/24 08:07:58;;;;;;;;;;;;;;;26.82;39.69;98817.19;4714767;30;20007;-81
2022/07/24 08:10:25;;;;;;;;;;;;;;;27.11;38.95;98815.88;4698802;30;20536;-81
2022/07/24 08:12:52;;;;;;;;;;;;;;;27.35;38.83;98812.13;4697642;30;20371;-80
2022/07/24 08:15:19;;;;;;;;;;;;;;;27.26;38.96;98811.53;4698215;30;20435;-81
2022/07/24 08:17:50;;;;;;;;;;;;;;;27.16;39.25;98810.06;4698898;30;19938;-81
2022/07/24 08:20:22;;;;;;;;;;;;;;;27.17;39.89;98813.66;4698730;30;19938;-82
2022/07/24 08:22:50;;;;;;;;;;;;;;;27.35;39.94;98811.34;4682954;30;20378;-81
2022/07/24 08:25:17;;;;;;;;;;;;;;;27.69;38.92;98820.00;4697184;30;19985;-81
2022/07/24 08:27:45;;;;;;;;;;;;;;;27.80;38.22;98815.47;4698773;30;19938;-82
2022/07/24 08:30:14;;;;;;;;;;;;;;;27.62;38.04;98818.66;4698632;30;19931;-82
2022/07/24 08:32:41;;;;;;;;;;;;;;;27.59;38.22;98810.28;4698757;30;19931;-82
2022/07/24 08:35:07;;;;;;;;;;;;;;;27.75;38.41;98808.25;4698400;30;19993;-81
2022/07/24 08:37:42;;;;;;;;;;;;;;;27.93;38.11;98803.13;4683446;30;20078;-82
2022/07/24 08:40:10;;;;;;;;;;;;;;;28.32;37.68;98794.75;4697085;30;20510;-82
2022/07/24 08:42:37;;;;;;;;;;;;;;;28.85;37.25;98791.31;4698405;30;20406;-83
2022/07/24 08:45:04;;;;;;;;;;;;;;;29.03;37.03;98792.41;4697161;30;19939;-82
2022/07/24 08:47:34;;;;;;;;;;;;;;;29.34;36.11;98796.06;4698574;30;19938;-82
2022/07/24 08:50:26;;;;;;;;;;;;;;;29.67;35.25;98787.00;4706731;30;20392;-82
2022/07/24 08:52:53;;;;;;;;;;;;;;;30.11;34.77;98780.78;4697090;30;19938;-82
2022/07/24 08:55:20;;;;;;;;;;;;;;;30.57;34.07;98782.47;4696897;30;20051;-82
2022/07/24 08:57:47;;;;;;;;;;;;;;;30.91;33.21;98787.94;4697180;30;19931;-82
2022/07/24 09:00:14;;;;;;;;;;;;;;;31.21;33.09;98771.03;4698054;30;19931;-82
2022/07/24 09:02:41;;;;;;;;;;;;;;;31.28;31.75;98790.59;4698451;30;20033;-82
2022/07/24 09:05:08;;;;;;;;;;;;;;;31.30;31.66;98785.44;4698135;30;19981;-82
2022/07/24 09:07:35;;;;;;;;;;;;;;;30.88;32.43;98786.72;4698290;30;20029;-81
2022/07/24 09:10:02;;;;;;;;;;;;;;;30.85;32.76;98782.72;4698425;30;20139;-81
2022/07/24 09:12:33;;;;;;;;;;;;;;;31.12;32.39;98785.31;4698197;30;19935;-82
2022/07/24 09:15:00;;;;;;;;;;;;;;;31.43;32.03;98777.56;4701583;30;20328;-82
2022/07/24 09:17:29;;;;;;;;;;;;;;;32.20;31.13;98769.13;4701890;30;19931;-81
2022/07/24 09:19:59;;;;;;;;;;;;;;;32.41;30.80;98760.78;4701825;30;20352;-82
2022/07/24 09:22:35;;;;;;;;;;;;;;;32.42;30.37;98773.53;4700624;30;20143;-82
2022/07/24 09:25:14;;;;;;;;;;;;;;;31.58;31.14;98770.09;4701683;30;19937;-81
2022/07/24 09:27:51;;;;;;;;;;;;;;;31.56;30.94;98767.69;4701941;30;20341;-81
2022/07/24 09:30:25;;;;;;;;;;;;;;;31.63;30.46;98769.72;4701090;30;19931;-81
2022/07/24 09:33:00;;;;;;;;;;;;;;;32.17;30.43;98773.50;4701791;30;19935;-82
2022/07/24 09:35:37;;;;;;;;;;;;;;;32.06;30.13;98756.72;4700451;30;19982;-81
2022/07/24 09:38:11;;;;;;;;;;;;;;;31.66;31.00;98775.28;4702177;30;20363;-82
2022/07/24 09:40:40;;;;;;;;;;;;;;;31.78;31.44;98776.94;4701501;30;20005;-82
2022/07/24 09:43:17;;;;;;;;;;;;;;;32.37;30.85;98771.16;4701607;30;20029;-80
2022/07/24 09:46:02;;;;;;;;;;;;;;;33.07;29.92;98771.63;4701400;30;20411;-82
2022/07/24 09:48:34;;;;;;;;;;;;;;;32.17;30.02;98777.09;4699538;30;20001;-83
2022/07/24 09:51:14;;;;;;;;;;;;;;;31.42;31.55;98771.16;4701561;30;19978;-83
2022/07/24 09:53:42;;;;;;;;;;;;;;;31.39;31.55;98777.53;4701169;30;19937;-82
2022/07/24 09:56:13;;;;;;;;;;;;;;;30.97;32.59;98781.63;4701048;30;20596;-82
2022/07/24 09:58:41;;;;;;;;;;;;;;;31.78;31.19;98776.13;4700993;30;19986;-81
2022/07/24 10:01:11;;;;;;;;;;;;;;;32.48;30.30;98769.19;4685645;30;19931;-81
2022/07/24 10:03:40;;;;;;;;;;;;;;;32.32;29.87;98777.91;4701010;30;20337;-82
2022/07/24 10:06:14;;;;;;;;;;;;;;;33.19;29.11;98773.16;4700108;30;19985;-81
2022/07/24 10:08:42;;;;;;;;;;;;;;;33.86;27.91;98768.59;4700970;30;20355;-81
2022/07/24 10:11:09;;;;;;;;;;;;;;;34.40;27.38;98760.69;4685293;30;20358;-81
2022/07/24 10:13:36;;;;;;;;;;;;;;;33.99;27.83;98761.31;4701581;30;20281;-83
2022/07/24 10:16:09;;;;;;;;;;;;;;;33.44;28.99;98764.72;4700695;30;20304;-81
2022/07/24 10:18:42;;;;;;;;;;;;;;;33.17;29.13;98765.22;4699354;30;19931;-80
2022/07/24 10:21:12;;;;;;;;;;;;;;;31.69;30.50;98757.75;4700717;30;19935;-81
2022/07/24 10:23:57;;;;;;;;;;;;;;;30.69;31.83;98762.69;4699543;30;19960;-82
2022/07/24 10:26:33;;;;;;;;;;;;;;;29.52;33.87;98757.38;4699428;30;19978;-82
2022/07/24 10:29:07;;;;;;;;;;;;;;;28.79;34.67;98754.75;4699374;30;20343;-82
2022/07/24 10:31:35;;;;;;;;;;;;;;;29.65;33.88;98750.47;4699233;30;19931;-81
2022/07/24 10:34:03;;;;;;;;;;;;;;;31.24;31.60;98740.38;4700244;30;19938;-82
2022/07/24 10:36:33;;;;;;;;;;;;;;;31.38;31.38;98750.03;4706730;30;20044;-82
2022/07/24 10:39:05;;;;;;;;;;;;;;;32.34;30.10;98746.81;4716917;30;19930;-82
2022/07/24 10:41:32;;;;;;;;;;;;;;;33.12;29.49;98736.84;4716881;30;19930;-82
2022/07/24 10:44:14;;;;;;;;;;;;;;;31.43;31.15;98738.53;4716332;30;20411;-81
2022/07/24 10:46:57;;;;;;;;;;;;;;;30.49;32.38;98734.28;4717837;30;20322;-81
2022/07/24 10:49:36;;;;;;;;;;;;;;;32.21;30.31;98737.19;4717489;30;20368;-82
2022/07/24 10:52:04;;;;;;;;;;;;;;;33.76;28.80;98724.69;4717759;30;19935;-82
2022/07/24 10:54:31;;;;;;;;;;;;;;;35.02;27.49;98728.19;4717330;30;20041;-82
2022/07/24 10:56:58;;;;;;;;;;;;;;;35.65;26.38;98716.66;4716771;30;19930;-82
2022/07/24 10:59:37;;;;;;;;;;;;;;;36.34;26.05;98720.13;4717679;30;19935;-82
2022/07/24 11:02:23;;;;;;;;;;;;;;;36.51;24.96;98718.22;4716453;30;20388;-82
2022/07/24 11:05:09;;;;;;;;;;;;;;;36.63;25.23;98714.06;4716360;30;19931;-83
2022/07/24 11:07:36;;;;;;;;;;;;;;;37.04;24.26;98713.72;4716398;30;19938;-83
2022/07/24 11:10:07;;;;;;;;;;;;;;;35.99;24.23;98727.06;4716287;30;19957;-83
2022/07/24 11:12:42;;;;;;;;;;;;;;;34.25;25.66;98714.41;4717207;30;20033;-82
2022/07/24 11:18:17;;;;;;;;;;;;;;;34.31;26.61;98713.56;4665568;30;20316;-83
2022/07/24 11:20:47;;;;;;;;;;;;;;;34.52;26.69;98697.78;4666095;30;20092;-81
2022/07/24 11:23:20;;;;;;;;;;;;;;;32.73;28.27;98699.34;4665924;30;19931;-81
2022/07/24 11:25:49;;;;;;;;;;;;;;;31.86;29.96;98694.88;4680190;30;19935;-81
2022/07/24 11:28:20;;;;;;;;;;;;;;;31.68;30.59;98683.66;4665590;30;19938;-83
2022/07/24 11:31:11;;;;;;;;;;;;;;;31.13;31.13;98689.38;4680512;30;19931;-82
2022/07/24 11:33:38;;;;;;;;;;;;;;;30.65;31.72;98690.22;4663341;30;19932;-81
2022/07/24 11:36:10;;;;;;;;;;;;;;;30.15;32.99;98684.22;4632272;30;19939;-82
2022/07/24 11:38:36;;;;;;;;;;;;;;;29.95;33.36;98680.84;4646081;30;19955;-82
2022/07/24 11:41:04;;;;;;;;;;;;;;;32.08;30.84;98675.38;4659878;30;20021;-82
2022/07/24 11:43:33;;;;;;;;;;;;;;;33.98;27.96;98672.16;4645949;30;19938;-82
2022/07/24 11:46:00;;;;;;;;;;;;;;;34.78;26.33;98679.56;4660302;30;19936;-81
2022/07/24 11:48:27;;;;;;;;;;;;;;;35.79;25.21;98680.00;4658104;30;19931;-81
2022/07/24 11:51:05;;;;;;;;;;;;;;;34.82;26.14;98679.53;4699376;30;19938;-81
2022/07/24 11:53:51;;;;;;;;;;;;;;;35.01;26.56;98669.72;4707545;30;20457;-82
2022/07/24 11:56:32;;;;;;;;;;;;;;;35.08;25.99;98678.88;4716157;30;19931;-82
2022/07/24 11:58:59;;;;;;;;;;;;;;;33.17;28.25;98661.75;4716719;30;19935;-82
2022/07/24 12:01:26;;;;;;;;;;;;;;;33.96;27.38;98663.38;4715427;30;19957;-81
2022/07/24 12:03:56;;;;;;;;;;;;;;;35.17;26.30;98650.31;4716500;30;19930;-81
2022/07/24 12:06:23;;;;;;;;;;;;;;;36.48;24.92;98650.88;4716222;30;19973;-82
2022/07/24 12:09:06;;;;;;;;;;;;;;;38.28;23.54;98655.19;4718010;30;19973;-82
2022/07/24 12:11:35;;;;;;;;;;;;;;;37.73;22.74;98651.28;4716237;30;19989;-82
2022/07/24 12:14:04;;;;;;;;;;;;;;;36.29;24.47;98641.16;4716482;30;20033;-83
2022/07/24 12:16:32;;;;;;;;;;;;;;;36.26;25.11;98640.00;4714560;30;19981;-83
2022/07/24 12:19:17;;;;;;;;;;;;;;;36.52;24.28;98638.34;4716391;30;19930;-82
2022/07/24 12:21:44;;;;;;;;;;;;;;;36.11;24.18;98628.22;4715060;30;19934;-82
2022/07/24 12:24:12;;;;;;;;;;;;;;;36.64;23.97;98649.00;4685324;30;20453;-81
2022/07/24 12:26:53;;;;;;;;;;;;;;;37.18;23.05;98635.94;4715055;30;20406;-82
2022/07/24 12:29:21;;;;;;;;;;;;;;;37.22;23.21;98639.47;4715767;30;19937;-83
2022/07/24 12:31:48;;;;;;;;;;;;;;;37.30;22.56;98627.63;4716058;30;19931;-82
2022/07/24 12:34:15;;;;;;;;;;;;;;;37.39;22.34;98617.81;4716207;30;20032;-82
2022/07/24 12:36:43;;;;;;;;;;;;;;;36.90;22.88;98617.59;4715840;30;20386;-82
2022/07/24 12:39:11;;;;;;;;;;;;;;;36.38;23.62;98610.50;4714472;30;19931;-82
2022/07/24 12:41:42;;;;;;;;;;;;;;;37.07;23.35;98603.22;4716072;30;20370;-83
2022/07/24 12:44:14;;;;;;;;;;;;;;;37.28;22.53;98601.16;4714655;30;19984;-82
2022/07/24 12:46:42;;;;;;;;;;;;;;;37.32;22.40;98613.13;4716147;30;19930;-83
2022/07/24 12:49:10;;;;;;;;;;;;;;;37.19;22.33;98615.03;4714409;30;19945;-82
2022/07/24 12:51:53;;;;;;;;;;;;;;;37.32;21.75;98607.50;4715782;30;20380;-82
2022/07/24 12:54:21;;;;;;;;;;;;;;;37.26;22.25;98600.81;4715512;30;19931;-83
2022/07/24 12:56:49;;;;;;;;;;;;;;;37.36;21.60;98605.41;4715614;30;19936;-83
2022/07/24 12:59:23;;;;;;;;;;;;;;;36.61;22.79;98598.47;4715861;30;19946;-83
2022/07/24 13:01:51;;;;;;;;;;;;;;;37.01;22.79;98604.91;4715929;30;19939;-82